createdAt,value
2018-09-06T00:02:28.176Z,63.6
2018-09-06T00:07:28.358Z,63.7
2018-09-06T00:12:27.442Z,63.7
2018-09-06T00:17:27.653Z,63.6
2018-09-06T00:22:27.921Z,63.6
2018-09-06T00:27:28.091Z,63.6
2018-09-06T00:32:27.884Z,63.6
2018-09-06T00:37:27.595Z,63.6
2018-09-06T00:42:27.929Z,63.7
2018-09-06T00:47:27.823Z,63.5
2018-09-06T00:52:27.418Z,63.4
2018-09-06T00:57:27.722Z,63.5
2018-09-06T01:02:28.194Z,63.4
2018-09-06T01:07:27.752Z,63.4
2018-09-06T01:12:27.660Z,63.5
2018-09-06T01:17:27.364Z,63.6
2018-09-06T01:22:28.540Z,63.5
2018-09-06T01:27:28.706Z,63.6
2018-09-06T01:32:28.200Z,63.6
2018-09-06T01:37:27.978Z,63.6
2018-09-06T01:42:28.710Z,63.7
2018-09-06T01:47:27.257Z,63.8
2018-09-06T01:52:27.753Z,63.7
2018-09-06T01:57:28.154Z,63.8
2018-09-06T02:02:26.979Z,63.7
2018-09-06T02:07:28.182Z,63.8
2018-09-06T02:12:27.615Z,63.6
2018-09-06T02:17:29.265Z,63.6
2018-09-06T02:22:28.096Z,63.8
2018-09-06T02:27:28.608Z,63.8
2018-09-06T02:32:27.970Z,63.6
2018-09-06T02:37:27.219Z,63.6
2018-09-06T02:42:28.164Z,63.4
2018-09-06T02:47:29.010Z,63.4
2018-09-06T02:52:26.878Z,63.5
2018-09-06T02:57:28.112Z,63.4
2018-09-06T03:02:28.312Z,63.1
2018-09-06T03:07:27.205Z,63.4
2018-09-06T03:12:27.425Z,63.3
2018-09-06T03:17:27.912Z,63.3
2018-09-06T03:22:28.505Z,63.3
2018-09-06T03:27:28.819Z,63.2
2018-09-06T03:32:27.627Z,63.1
2018-09-06T03:37:27.251Z,63.2
2018-09-06T03:42:27.745Z,63.0
2018-09-06T03:47:28.644Z,62.9
2018-09-06T03:52:27.651Z,62.9
2018-09-06T03:57:28.082Z,63.0
2018-09-06T04:02:28.331Z,62.9
2018-09-06T04:07:28.434Z,63.0
2018-09-06T04:12:28.699Z,63.1
2018-09-06T04:17:28.286Z,63.0
2018-09-06T04:22:28.301Z,63.0
2018-09-06T04:27:27.937Z,63.3
2018-09-06T04:32:28.343Z,63.1
2018-09-06T04:37:27.655Z,63.1
2018-09-06T04:42:28.012Z,63.1
2018-09-06T04:47:27.688Z,63.2
2018-09-06T04:52:29.274Z,63.3
2018-09-06T04:57:27.760Z,63.3
2018-09-06T05:02:28.610Z,63.4
2018-09-06T05:07:28.414Z,63.4
2018-09-06T05:12:27.881Z,63.4
2018-09-06T05:17:28.873Z,63.4
2018-09-06T05:22:28.649Z,63.3
2018-09-06T05:27:28.628Z,63.1
2018-09-06T05:32:28.806Z,63.0
2018-09-06T05:37:29.173Z,62.7
2018-09-06T05:42:27.726Z,62.8
2018-09-06T05:47:28.256Z,62.7
2018-09-06T05:52:29.499Z,62.6
2018-09-06T05:57:28.444Z,62.7
2018-09-06T06:02:28.478Z,62.3
2018-09-06T06:07:28.339Z,62.2
2018-09-06T06:12:28.109Z,61.9
2018-09-06T06:17:27.993Z,61.6
2018-09-06T06:22:27.771Z,61.5
2018-09-06T06:27:29.552Z,61.5
2018-09-06T06:32:28.645Z,61.4
2018-09-06T06:37:28.184Z,61.4
2018-09-06T06:42:27.986Z,61.4
2018-09-06T06:47:28.561Z,61.4
2018-09-06T06:52:28.167Z,61.5
2018-09-06T06:57:28.360Z,61.5
2018-09-06T07:02:28.133Z,61.4
2018-09-06T07:07:29.204Z,61.4
2018-09-06T07:12:27.640Z,61.3
2018-09-06T07:17:28.670Z,61.4
2018-09-06T07:22:27.790Z,61.5
2018-09-06T07:27:28.951Z,61.7
2018-09-06T07:32:27.949Z,61.5
2018-09-06T07:37:28.357Z,61.9
2018-09-06T07:42:27.463Z,62.3
2018-09-06T07:47:27.439Z,62.4
2018-09-06T07:52:28.870Z,62.2
2018-09-06T07:57:29.631Z,62.1
2018-09-06T08:02:27.795Z,62.4
2018-09-06T08:07:29.550Z,62.4
2018-09-06T08:12:27.553Z,62.4
2018-09-06T08:17:28.472Z,62.4
2018-09-06T08:22:27.801Z,62.4
2018-09-06T08:27:27.967Z,62.4
2018-09-06T08:32:27.892Z,62.2
2018-09-06T08:37:28.049Z,62.6
2018-09-06T08:42:27.919Z,62.2
2018-09-06T08:47:28.500Z,62.2
2018-09-06T08:52:27.540Z,62.0
2018-09-06T08:57:28.269Z,62.4
2018-09-06T09:02:28.572Z,62.5
2018-09-06T09:07:28.786Z,62.8
2018-09-06T09:12:28.283Z,62.1
2018-09-06T09:17:28.897Z,62.2
2018-09-06T09:22:28.713Z,62.0
2018-09-06T09:27:28.232Z,62.0
2018-09-06T09:32:27.807Z,61.3
2018-09-06T09:37:28.423Z,62.4
2018-09-06T09:42:28.911Z,62.9
2018-09-06T09:52:27.847Z,63.2
2018-09-06T09:57:28.569Z,64.0
2018-09-06T10:02:27.521Z,64.2
2018-09-06T10:07:27.999Z,64.2
2018-09-06T10:12:27.833Z,64.2
2018-09-06T10:17:28.518Z,64.0
2018-09-06T10:22:28.749Z,63.7
2018-09-06T10:27:28.131Z,64.5
2018-09-06T10:32:28.768Z,64.5
2018-09-06T10:37:28.269Z,64.8
2018-09-06T10:42:28.312Z,63.8
2018-09-06T10:47:27.850Z,64.0
2018-09-06T10:52:28.142Z,62.9
2018-09-06T10:57:28.402Z,63.2
2018-09-06T11:02:28.569Z,62.1
2018-09-06T11:07:28.690Z,62.1
2018-09-06T11:12:28.271Z,61.9
2018-09-06T11:17:28.104Z,62.3
2018-09-06T11:22:28.836Z,62.6
2018-09-06T11:27:28.422Z,62.6
2018-09-06T11:32:29.105Z,62.4
2018-09-06T11:37:28.298Z,62.1
2018-09-06T11:42:29.539Z,61.6
2018-09-06T11:47:30.150Z,61.4
2018-09-06T11:52:29.031Z,61.2
2018-09-06T11:57:27.983Z,60.9
2018-09-06T12:02:27.864Z,60.9
2018-09-06T12:07:28.177Z,60.9
2018-09-06T12:12:28.688Z,60.8
2018-09-06T12:17:29.321Z,60.4
2018-09-06T12:22:28.722Z,60.4
2018-09-06T12:27:28.295Z,59.9
2018-09-06T12:32:29.179Z,60.8
2018-09-06T12:37:29.080Z,60.2
2018-09-06T12:42:28.049Z,60.2
2018-09-06T12:47:28.974Z,60.1
2018-09-06T12:52:27.419Z,60.8
2018-09-06T12:57:28.606Z,60.9
2018-09-06T13:02:28.912Z,60.9
2018-09-06T13:07:29.038Z,60.9
2018-09-06T13:12:28.400Z,60.5
2018-09-06T13:17:29.007Z,61.0
2018-09-06T13:22:27.500Z,61.2
2018-09-06T13:27:29.193Z,61.5
2018-09-06T13:32:27.788Z,61.3
2018-09-06T13:37:28.138Z,60.4
2018-09-06T13:42:28.222Z,61.0
2018-09-06T13:47:28.436Z,61.0
2018-09-06T13:52:27.719Z,61.1
2018-09-06T13:57:28.104Z,60.7
2018-09-06T14:02:28.628Z,62.1
2018-09-06T14:07:28.683Z,62.7
2018-09-06T14:12:28.713Z,63.4
2018-09-06T14:17:28.936Z,63.3
2018-09-06T14:22:28.630Z,63.6
2018-09-06T14:27:28.451Z,63.8
2018-09-06T14:32:28.570Z,65.2
2018-09-06T14:37:29.026Z,65.2
2018-09-06T14:42:27.731Z,64.9
2018-09-06T14:47:28.139Z,64.0
2018-09-06T14:52:28.009Z,64.2
2018-09-06T14:57:29.253Z,64.2
2018-09-06T15:02:28.759Z,64.7
2018-09-06T15:07:28.026Z,64.8
2018-09-06T15:12:28.818Z,64.3
2018-09-06T15:17:28.467Z,63.6
2018-09-06T15:22:27.786Z,63.2
2018-09-06T15:27:28.088Z,63.5
2018-09-06T15:32:28.346Z,63.9
2018-09-06T15:37:28.218Z,63.8
2018-09-06T15:42:28.341Z,63.6
2018-09-06T15:47:28.410Z,63.5
2018-09-06T15:52:28.199Z,64.0
2018-09-06T15:57:28.190Z,63.9
2018-09-06T16:02:29.431Z,63.4
2018-09-06T16:07:28.672Z,63.1
2018-09-06T16:12:28.359Z,63.2
2018-09-06T16:17:28.931Z,63.3
2018-09-06T16:22:27.450Z,63.3
2018-09-06T16:27:28.691Z,63.4
2018-09-06T16:32:28.545Z,63.6
2018-09-06T16:37:28.042Z,63.8
2018-09-06T16:42:27.975Z,63.8
2018-09-06T16:47:28.534Z,63.9
2018-09-06T16:52:27.700Z,64.0
2018-09-06T16:57:29.089Z,63.8
2018-09-06T17:02:28.239Z,63.9
2018-09-06T17:07:29.021Z,64.0
2018-09-06T17:12:28.084Z,64.1
2018-09-06T17:17:28.759Z,64.2
2018-09-06T17:22:28.899Z,64.2
2018-09-06T17:27:28.092Z,64.2
2018-09-06T17:32:30.404Z,64.4
2018-09-06T17:37:29.063Z,64.6
2018-09-06T17:42:28.044Z,64.7
2018-09-06T17:47:28.634Z,64.5
2018-09-06T17:52:28.111Z,64.5
2018-09-06T17:57:27.463Z,64.7
2018-09-06T18:02:27.798Z,64.6
2018-09-06T18:07:28.464Z,64.8
2018-09-06T18:12:28.051Z,64.8
2018-09-06T18:17:28.455Z,64.7
2018-09-06T18:22:27.775Z,64.6
2018-09-06T18:27:28.301Z,64.7
2018-09-06T18:32:27.995Z,65.0
2018-09-06T18:37:27.505Z,65.0
2018-09-06T18:42:27.696Z,65.0
2018-09-06T18:47:27.062Z,64.8
2018-09-06T18:52:28.102Z,64.8
2018-09-06T18:57:28.028Z,65.0
2018-09-06T19:02:28.006Z,65.0
2018-09-06T19:07:28.492Z,65.1
2018-09-06T19:12:28.826Z,65.0
2018-09-06T19:17:27.461Z,65.0
2018-09-06T19:22:26.892Z,65.0
2018-09-06T19:27:27.784Z,65.1
2018-09-06T19:32:28.877Z,65.2
2018-09-06T19:37:28.073Z,65.4
2018-09-06T19:42:27.659Z,65.3
2018-09-06T19:47:27.187Z,65.4
2018-09-06T19:52:28.063Z,65.4
2018-09-06T19:57:27.656Z,65.5
2018-09-06T20:02:27.434Z,65.3
2018-09-06T20:07:28.418Z,65.4
2018-09-06T20:12:28.471Z,65.5
2018-09-06T20:17:28.084Z,65.4
2018-09-06T20:22:27.759Z,65.3
2018-09-06T20:27:28.160Z,65.3
2018-09-06T20:32:27.887Z,65.3
2018-09-06T20:37:29.094Z,65.1
2018-09-06T20:42:28.614Z,65.2
2018-09-06T20:47:27.584Z,65.3
2018-09-06T20:52:29.158Z,65.4
2018-09-06T20:57:28.049Z,65.4
2018-09-06T21:02:27.529Z,65.4
2018-09-06T21:07:28.156Z,65.5
2018-09-06T21:12:28.198Z,65.5
2018-09-06T21:17:28.356Z,65.3
2018-09-06T21:22:27.726Z,65.2
2018-09-06T21:27:27.704Z,65.1
2018-09-06T21:32:27.902Z,65.3
2018-09-06T21:37:27.908Z,65.5
2018-09-06T21:42:28.350Z,65.5
2018-09-06T21:47:27.622Z,65.5
2018-09-06T21:52:28.178Z,65.3
2018-09-06T21:57:27.765Z,65.2
2018-09-06T22:02:28.113Z,65.3
2018-09-06T22:07:27.312Z,65.5
2018-09-06T22:12:28.096Z,65.7
2018-09-06T22:22:47.668Z,65.2
2018-09-06T22:27:47.003Z,65.6
2018-09-06T22:32:46.602Z,65.8
2018-09-06T22:37:46.377Z,65.6
2018-09-06T22:42:47.032Z,65.8
2018-09-06T22:47:46.784Z,65.8
2018-09-06T22:52:46.732Z,65.7
2018-09-06T22:57:46.702Z,65.6
2018-09-06T23:02:46.345Z,65.6
2018-09-06T23:07:48.012Z,65.6
2018-09-06T23:12:28.247Z,65.6
2018-09-06T23:17:28.092Z,65.5
2018-09-06T23:22:27.185Z,65.5
2018-09-06T23:27:28.598Z,65.3
2018-09-06T23:32:28.209Z,65.3
2018-09-06T23:37:27.737Z,65.6
2018-09-06T23:42:27.757Z,65.6
2018-09-06T23:47:27.767Z,65.6
2018-09-06T23:52:28.012Z,65.6
2018-09-06T23:57:27.482Z,65.8
